KDPA

Dupage Airport

Chicago/West Chicago, Illinois, USA
METAR KDPA 130306Z 26005KT 5SM HZ SCT023 M02/M05 A2992 RMK AO2 T10171050
Observed Flight Rules
Dec-13 @ 03:06 UTC (55 minutes ago) Marginal Visual Flight Rules
Wind Visibility Clouds Conditions
260° at 5 knots 5 miles
  • Scattered at 2,300' AGL
  • Haze
Temperatures Readings
Current -2°C / 28°F
Dewpoint -5°C / 23°F
Humidity 80%
Altimeter 29.92" Hg
Pressure 1013 hPa
Elevation 231
METAR KDPA 130306Z 26005KT 5SM HZ SCT023 M02/M05 A2992 RMK AO2 T10171050
Observed Flight Rules
Dec-13 @ 03:06 UTC
(55 minutes ago)
MVFR
Wind Visibility
260° at 5 knots 5 miles
Clouds
  • Scattered at 2,300' AGL
Conditions
  • Haze
Temperature Dewpoint
-2°C / 28°F -5°C / 23°F
Humidity Altimeter Pressure
80% 29.92" Hg 1013 hPa